Startpagina
METAR-TAF:

METAR-TAF

Vliegvelden :

Luchthaven Larnaca

Larnaca, Cyprus

breedte: 34-53N, lengte: 033-38E, hoogte: 2 m

Actueel weer

Dit bericht is 30 minuten geleden gemaakt, om 16:30 UTC
Wind 8 kt uit het zuidzuidwesten
Temperatuur 31°C
Vochtigheid 55%
Druk 1005 hPa
Zicht 10 km of meer
geen wolken onder 1500 m en geen cumulonimbus

METAR: LCLK 151630Z 21008KT CAVOK 31/21 Q1005 NOSIG

Tijdstip: 20:00 (17:00 UTC)

Verwachting

Dit bericht is 5 uur en het 30 minuten geleden gemaakt, om 11:30 UTC
Verwachting geldig van 15 om 12 UTC tot 16 om 12 UTC
Wind 16 kt uit het zuidwesten
Zicht 10 km of meer
Weinig wolken op 3000 ft
Wijzigt naar
van 15 om 16 UTC tot 15 om 20 UTC
Wind 6 kt uit het noordwesten
Kans 30%
van 15 om 21 UTC tot 16 om 05 UTC
Zicht: 5000 m
Gebroken wolken op 600 ft
nevel
Wijzigt naar
van 16 om 07 UTC tot 16 om 10 UTC
Wind 20 kt uit het zuidwesten

TAF: LCLK 151130Z 1512/1612 22016KT 9999 FEW030 BECMG 1516/1520 31006KT PROB30 1521/1605 5000 BR BKN006 BECMG 1607/1610 22020KT

Waarnemingen en weersverwachtingen van meer dan 4000 vliegvelden (METAR en TAF).

De beschikbare stations zijn de gele en rode punten op de kaart.

Ga met uw muis naar het station om de naam te zien.

Klik dan om waarnemingen en weersverwachtingen te zien.

kaart wijzigen: klik op de groene knoppen met een zwart kruis om in te zoomen, op de groene knop met een streepje om uit te zoomen of op de groene pijlen voor aangrenzende kaarten.


METAR-TAF: